Omaha, NE (68142)

2:27 AM CST on February 06, 2016 (GMT -0600)
Cherry Hills | | Change Station
CLOSE
Current Station
Personal Weather Station
Location: Omaha, NE
Elevation: 1230 ft
Nearby Weather Stations

Elev 1230 ft 41.32 °N, 96.07 °W | Updated 14 seconds ago

Overcast
Overcast
32.9 °F
Feels Like 33 °F
N
0.4
Wind Variable Wind from North
Gusts 3.8 mph

Today
High -- | Low -- °F
--% Chance of Precip.
Yesterday
High -- | Low -- °F
Precip. -- in
Pressure 30.25 in
Visibility 10.0 miles
Clouds Overcast 700 ft
Windchill 33 °F
Dew Point 29 °F
Humidity 85%
Rainfall 0.00 in
Snow Depth Not available.
7:30 AM 5:46 PM
Waning Crescent, 7% visible
METAR KBTA 060815Z AUTO 31005KT 10SM OVC007 00/M01 A3025 RMK AO2 T00001010
Pressure 30.25 in
Visibility 10.0 miles
Clouds Overcast 700 ft
Windchill 33 °F
Dew Point 29 °F
Humidity 85%
Rainfall 0.00 in
Snow Depth Not available.
7:30 AM 5:46 PM
Waning Crescent, 7% visible
METAR KBTA 060815Z AUTO 31005KT 10SM OVC007 00/M01 A3025 RMK AO2 T00001010

10-Day Weather Forecast

Almanac

Astronomy

Feb. 06, 2016 Rise Set
Actual Time
Civil Twilight
Nautical Twilight
Astronomical Twilight
Moon
Length of Visible Light
Length of Day
Tomorrow will be .
, % of the Moon is Illuminated

Today's Extremes

State Highs State Lows

Community

WunderPhotos

Upload Photos

1,890,933 photos uploaded!

WunderBlog® & News

Nearby

Air Quality

  Air Quality AQ Index Pollutant
Not available.

Snow Depth

Station Depth Elevation

Earthquake Activity

City Distance Mag. Time & Date
Minimum magnitude displayed is 2.5.

Coastal Water Temperatures

Place Temperature

Stations

Nearby Weather Stations

Station Location Temp. Windchill Dew Point Humidity Wind Precip. Elev Updated Type
                   

Watches & Warnings

There are currently no watches in effect.